Time;durP1;ratioP1;P1;durP2;ratioP2;P2;SDS_P1;SDS_P2;PMS_P1;PMS_P2;Temp;Humidity;BMP_temperature;BMP_pressure;BME280_temperature;BME280_humidity;BME280_pressure;Samples;Min_cycle;Max_cycle;Signal;HPM_P1;HPM_P2
2022/12/13 00:02:00;;;;;;;30.07;19.23;;;;;-2.20;98433.00;;;;16573545;28;20298;-46
2022/12/13 00:10:05;;;;;;;27.53;18.37;;;;;-2.20;98430.00;;;;16591504;28;20268;-47
2022/12/13 00:18:07;;;;;;;27.13;18.57;;;;;-2.40;98424.00;;;;16626257;28;20236;-47
2022/12/13 00:26:14;;;;;;;30.03;17.60;;;;;-2.30;98424.00;;;;16766461;28;20201;-48
2022/12/13 00:34:17;;;;;;;31.20;19.60;;;;;-2.30;98420.00;;;;16748234;28;20563;-49
2022/12/13 00:42:21;;;;;;;35.93;20.73;;;;;-2.10;98411.00;;;;16725221;28;20392;-48
2022/12/13 00:50:23;;;;;;;36.67;20.83;;;;;-2.40;98420.00;;;;16720639;28;20221;-46
2022/12/13 00:58:27;;;;;;;27.23;18.33;;;;;-2.30;98393.00;;;;16717341;28;20213;-48
2022/12/13 01:06:33;;;;;;;29.93;20.23;;;;;-2.40;98384.00;;;;16706596;28;20695;-51
2022/12/13 01:14:39;;;;;;;35.23;21.97;;;;;-2.60;98398.00;;;;16743657;28;20196;-45
2022/12/13 01:22:41;;;;;;;32.93;20.40;;;;;-2.50;98389.00;;;;16747667;28;20228;-45
2022/12/13 01:30:45;;;;;;;31.50;22.03;;;;;-2.40;98395.00;;;;16751991;28;20216;-46
2022/12/13 01:38:47;;;;;;;34.10;20.00;;;;;-2.70;98398.00;;;;16740071;28;20225;-47
2022/12/13 01:46:51;;;;;;;20.57;13.93;;;;;-2.70;98400.00;;;;16737319;28;20305;-48
2022/12/13 01:54:56;;;;;;;37.67;22.10;;;;;-2.80;98390.00;;;;16759636;28;20662;-47
2022/12/13 02:03:00;;;;;;;32.53;19.90;;;;;-2.90;98386.00;;;;16733098;28;20311;-47
2022/12/13 02:11:04;;;;;;;34.63;20.50;;;;;-2.70;98378.00;;;;16711279;28;20222;-47
2022/12/13 02:19:45;;;;;;;32.00;22.00;;;;;-2.70;98382.00;;;;16709474;28;20222;-47
2022/12/13 02:28:02;;;;;;;30.33;20.87;;;;;-2.80;98361.00;;;;16654940;28;20229;-44
2022/12/13 02:36:11;;;;;;;33.70;20.73;;;;;-3.10;98368.00;;;;16700619;28;20569;-46
2022/12/13 02:44:17;;;;;;;36.07;22.00;;;;;-3.00;98369.00;;;;16753053;28;20618;-45
2022/12/13 03:01:52;;;;;;;23.53;13.47;;;;;-3.10;98371.00;;;;16710875;28;20235;-47
2022/12/13 03:09:59;;;;;;;39.10;21.50;;;;;-3.00;98353.00;;;;16747813;28;20222;-48
2022/12/13 03:18:14;;;;;;;33.57;20.77;;;;;-3.10;98339.00;;;;16760873;28;20232;-48
2022/12/13 03:35:42;;;;;;;32.07;19.30;;;;;-3.30;98346.00;;;;16717884;28;20829;-47
2022/12/13 03:43:45;;;;;;;29.37;18.17;;;;;-3.30;98343.00;;;;16759670;28;20252;-45
2022/12/13 03:51:49;;;;;;;34.30;20.23;;;;;-3.20;98341.00;;;;16753999;28;20214;-45
2022/12/13 03:59:52;;;;;;;29.87;18.10;;;;;-3.50;98334.00;;;;16743017;28;20241;-47
2022/12/13 04:07:57;;;;;;;21.53;15.87;;;;;-3.30;98323.00;;;;16691213;28;20728;-47
2022/12/13 04:16:00;;;;;;;33.10;17.20;;;;;-3.30;98322.00;;;;16712252;28;20204;-48
2022/12/13 04:24:05;;;;;;;30.93;20.00;;;;;-3.30;98310.00;;;;16729531;28;20689;-46
2022/12/13 04:32:07;;;;;;;17.97;12.20;;;;;-3.60;98323.00;;;;16713837;28;20225;-47
2022/12/13 04:40:12;;;;;;;25.80;16.70;;;;;-3.50;98325.00;;;;16703996;28;20780;-47
2022/12/13 04:48:14;;;;;;;31.20;15.10;;;;;-3.40;98326.00;;;;16730250;28;20309;-47
2022/12/13 04:56:18;;;;;;;24.83;15.53;;;;;-3.40;98325.00;;;;16721394;28;20193;-47
2022/12/13 05:04:21;;;;;;;25.80;14.87;;;;;-3.40;98318.00;;;;16753265;22;20442;-47
2022/12/13 05:12:25;;;;;;;28.63;16.13;;;;;-3.40;98312.00;;;;16737662;28;20202;-46
2022/12/13 05:20:27;;;;;;;23.20;14.83;;;;;-3.40;98312.00;;;;16711660;28;20230;-46
2022/12/13 05:28:31;;;;;;;19.87;13.20;;;;;-3.50;98308.00;;;;16715331;28;20214;-47
2022/12/13 05:36:34;;;;;;;26.90;14.97;;;;;-3.50;98306.00;;;;16707798;28;20232;-47
2022/12/13 05:44:38;;;;;;;17.20;13.07;;;;;-3.60;98315.00;;;;16716648;28;20220;-46
2022/12/13 05:52:41;;;;;;;25.33;14.93;;;;;-3.60;98297.00;;;;16707638;28;20194;-45
2022/12/13 06:00:46;;;;;;;23.37;14.27;;;;;-3.50;98293.00;;;;16712305;28;20277;-47
2022/12/13 06:08:49;;;;;;;21.43;13.40;;;;;-3.70;98299.00;;;;16710127;28;20372;-46
2022/12/13 06:16:53;;;;;;;45.37;25.60;;;;;-3.50;98296.00;;;;16686279;28;20223;-48
2022/12/13 06:24:56;;;;;;;13.20;9.30;;;;;-3.60;98306.00;;;;16748948;28;20296;-48
2022/12/13 06:32:59;;;;;;;28.83;21.90;;;;;-3.40;98294.00;;;;16743897;28;20319;-48
2022/12/13 06:41:10;;;;;;;20.33;14.70;;;;;-3.50;98290.00;;;;16735562;28;20210;-49
2022/12/13 06:49:14;;;;;;;12.90;7.70;;;;;-3.70;98296.00;;;;16683030;28;20615;-46
2022/12/13 06:57:16;;;;;;;25.43;16.50;;;;;-3.50;98311.00;;;;16683990;28;20219;-45
2022/12/13 07:05:20;;;;;;;29.17;17.30;;;;;-3.50;98306.00;;;;16693931;28;20222;-46
2022/12/13 07:13:23;;;;;;;25.20;16.13;;;;;-3.30;98307.00;;;;16715849;28;20440;-46
2022/12/13 07:21:27;;;;;;;24.70;17.33;;;;;-3.00;98321.00;;;;16732759;28;20221;-47
2022/12/13 07:29:30;;;;;;;33.43;17.77;;;;;-3.40;98315.00;;;;16743819;28;20715;-46
2022/12/13 07:37:34;;;;;;;25.30;15.60;;;;;-3.20;98312.00;;;;16724068;28;20300;-46
2022/12/13 07:45:37;;;;;;;26.27;15.57;;;;;-3.10;98326.00;;;;16700441;28;20744;-45
2022/12/13 07:53:41;;;;;;;25.43;18.53;;;;;-3.10;98334.00;;;;16737827;28;20220;-45
2022/12/13 08:01:43;;;;;;;23.27;15.33;;;;;-2.50;98326.00;;;;16755669;28;20236;-46
2022/12/13 08:09:47;;;;;;;27.67;15.43;;;;;-2.50;98324.00;;;;16704573;28;20934;-45
2022/12/13 08:17:50;;;;;;;21.60;16.40;;;;;-2.40;98328.00;;;;16695315;28;20305;-46
2022/12/13 08:25:54;;;;;;;24.97;17.40;;;;;-1.60;98316.00;;;;16685788;28;20253;-47
2022/12/13 08:33:57;;;;;;;25.43;18.23;;;;;-1.50;98310.00;;;;16701326;28;20589;-47
2022/12/13 08:42:01;;;;;;;35.03;19.10;;;;;-1.00;98307.00;;;;16721943;28;20304;-47
2022/12/13 08:50:04;;;;;;;30.60;19.70;;;;;-1.00;98308.00;;;;16707839;28;20232;-47
2022/12/13 08:58:08;;;;;;;29.63;20.57;;;;;-0.50;98308.00;;;;16694136;28;20230;-47
2022/12/13 09:06:15;;;;;;;24.53;16.90;;;;;-0.60;98292.00;;;;16705597;28;20232;-48
2022/12/13 09:14:19;;;;;;;24.30;15.57;;;;;-0.20;98278.00;;;;16677455;28;20760;-47
2022/12/13 09:22:21;;;;;;;23.37;16.10;;;;;0.20;98265.00;;;;16696618;28;20235;-47
2022/12/13 09:30:26;;;;;;;23.23;15.77;;;;;1.00;98250.00;;;;16721229;28;20214;-46
2022/12/13 09:38:29;;;;;;;18.70;14.00;;;;;2.80;98215.00;;;;16716722;28;20220;-47
2022/12/13 09:46:34;;;;;;;18.60;12.73;;;;;3.30;98210.00;;;;16714643;28;20598;-48
2022/12/13 09:54:37;;;;;;;20.10;13.97;;;;;3.60;98211.00;;;;16711085;28;20719;-48
2022/12/13 10:02:45;;;;;;;27.77;14.10;;;;;3.10;98210.00;;;;16704694;28;20310;-47
2022/12/13 10:10:50;;;;;;;19.60;12.40;;;;;3.50;98199.00;;;;16710376;28;20259;-46
2022/12/13 10:18:54;;;;;;;35.10;22.30;;;;;4.20;98174.00;;;;16706563;28;20236;-47
2022/12/13 10:26:57;;;;;;;25.53;14.47;;;;;4.30;98177.00;;;;16711913;28;20235;-47
2022/12/13 10:35:02;;;;;;;15.27;10.53;;;;;3.20;98178.00;;;;16743653;28;20244;-46
2022/12/13 10:43:12;;;;;;;18.10;12.17;;;;;3.60;98151.00;;;;16758203;28;20267;-47
2022/12/13 10:51:18;;;;;;;19.33;11.00;;;;;4.70;98146.00;;;;16734176;28;20891;-47
2022/12/13 10:59:28;;;;;;;17.33;12.33;;;;;4.70;98142.00;;;;16754332;28;20786;-47
2022/12/13 11:07:33;;;;;;;15.43;11.03;;;;;4.30;98140.00;;;;16741593;28;20789;-47
2022/12/13 11:15:37;;;;;;;13.27;9.17;;;;;4.10;98144.00;;;;16763821;28;20213;-46
2022/12/13 11:23:45;;;;;;;10.80;8.80;;;;;4.10;98130.00;;;;16766846;28;20219;-47
2022/12/13 11:31:56;;;;;;;14.03;9.17;;;;;4.20;98119.00;;;;16767178;28;20201;-46
2022/12/13 11:40:05;;;;;;;15.00;8.50;;;;;4.90;98098.00;;;;16763851;28;20586;-47
2022/12/13 11:48:16;;;;;;;12.17;8.80;;;;;4.50;98101.00;;;;16761701;28;20214;-46
2022/12/13 11:56:25;;;;;;;13.13;9.73;;;;;4.70;98108.00;;;;16759400;28;20244;-47
2022/12/13 12:04:34;;;;;;;14.23;9.57;;;;;4.80;98110.00;;;;16766026;28;20226;-46
2022/12/13 12:12:39;;;;;;;15.47;9.20;;;;;5.00;98097.00;;;;16750899;28;20330;-45
2022/12/13 12:20:52;;;;;;;12.20;8.50;;;;;5.00;98088.00;;;;16730357;28;20711;-45
2022/12/13 12:29:10;;;;;;;15.40;8.90;;;;;4.90;98077.00;;;;16726705;28;20830;-46
2022/12/13 12:37:19;;;;;;;13.03;10.53;;;;;5.30;98069.00;;;;16731590;28;20706;-46
2022/12/13 12:45:34;;;;;;;15.47;12.20;;;;;5.10;98054.00;;;;16724416;28;20302;-46
2022/12/13 12:53:43;;;;;;;11.23;8.10;;;;;5.90;98057.00;;;;16723686;28;20308;-46
2022/12/13 13:02:00;;;;;;;13.80;7.90;;;;;5.80;98052.00;;;;16705224;28;20244;-46
2022/12/13 13:10:03;;;;;;;11.47;8.30;;;;;5.10;98062.00;;;;16711190;28;20726;-47
2022/12/13 13:18:45;;;;;;;18.23;10.93;;;;;5.70;98046.00;;;;16715635;28;20712;-47
2022/12/13 13:26:50;;;;;;;66.97;26.13;;;;;6.00;98015.00;;;;16685582;28;20247;-47
2022/12/13 13:34:56;;;;;;;20.70;12.17;;;;;5.30;98035.00;;;;16693618;28;20357;-48
2022/12/13 13:43:14;;;;;;;85.70;35.67;;;;;5.60;98025.00;;;;16690930;28;20305;-48
2022/12/13 13:52:05;;;;;;;20.60;11.63;;;;;5.20;98047.00;;;;16735154;28;20215;-47
2022/12/13 14:00:16;;;;;;;21.93;12.63;;;;;6.20;98027.00;;;;16543477;22;20369;-72
2022/12/13 14:08:34;;;;;;;14.30;11.20;;;;;4.70;98041.00;;;;16574867;28;20621;-73
2022/12/13 14:17:06;;;;;;;26.70;13.80;;;;;4.80;98059.00;;;;16563460;28;20315;-70
2022/12/13 14:25:47;;;;;;;21.10;12.07;;;;;4.80;98070.00;;;;16559798;28;20712;-69
2022/12/13 14:33:51;;;;;;;20.10;11.13;;;;;4.90;98057.00;;;;16561866;28;20206;-70
2022/12/13 14:41:57;;;;;;;16.27;11.40;;;;;4.70;98065.00;;;;16576784;28;20622;-72
2022/12/13 14:50:00;;;;;;;14.00;9.80;;;;;4.70;98064.00;;;;16591931;28;20226;-72
2022/12/13 14:58:17;;;;;;;33.47;10.80;;;;;4.50;98059.00;;;;16580661;28;20327;-71
2022/12/13 15:06:21;;;;;;;16.23;10.00;;;;;5.00;98042.00;;;;16577651;28;20526;-72
2022/12/13 15:14:25;;;;;;;17.13;11.43;;;;;4.90;98028.00;;;;16584299;28;20269;-72
2022/12/13 15:22:28;;;;;;;18.03;11.77;;;;;4.70;98021.00;;;;16588249;28;20234;-72
2022/12/13 15:30:35;;;;;;;16.33;11.87;;;;;5.00;98024.00;;;;16548399;28;20224;-72
2022/12/13 15:38:39;;;;;;;16.93;12.17;;;;;5.00;97999.00;;;;16583470;28;20273;-72
2022/12/13 15:46:45;;;;;;;21.90;12.50;;;;;4.80;97999.00;;;;16546859;28;20269;-72
2022/12/13 15:54:55;;;;;;;16.73;10.03;;;;;5.00;97989.00;;;;16544040;28;20673;-72
2022/12/13 16:03:02;;;;;;;17.50;11.37;;;;;4.90;97993.00;;;;16540750;28;20815;-72
2022/12/13 16:11:05;;;;;;;20.10;11.43;;;;;4.60;97981.00;;;;16570717;28;20749;-71
2022/12/13 16:19:15;;;;;;;18.50;10.70;;;;;4.60;97980.00;;;;16577758;28;20300;-73
2022/12/13 16:27:19;;;;;;;17.13;11.30;;;;;4.80;97974.00;;;;16562283;28;20231;-71
2022/12/13 16:35:24;;;;;;;20.00;13.10;;;;;4.60;97970.00;;;;16574893;28;20687;-70
2022/12/13 16:43:27;;;;;;;19.33;12.50;;;;;4.90;97968.00;;;;16561071;28;20227;-70
2022/12/13 16:51:31;;;;;;;15.10;10.10;;;;;4.20;97970.00;;;;16571796;28;20314;-70
2022/12/13 16:59:33;;;;;;;18.53;11.60;;;;;3.90;97988.00;;;;16564298;28;20827;-70
2022/12/13 17:07:37;;;;;;;36.03;20.30;;;;;3.00;97983.00;;;;16553474;28;20273;-69
2022/12/13 17:15:40;;;;;;;20.60;14.30;;;;;3.10;97991.00;;;;16539528;28;20596;-71
2022/12/13 17:23:44;;;;;;;19.70;13.93;;;;;3.40;97976.00;;;;16535527;28;20657;-70
2022/12/13 17:31:47;;;;;;;19.30;11.97;;;;;4.00;97976.00;;;;16560407;28;20688;-71
2022/12/13 17:39:51;;;;;;;19.67;13.67;;;;;3.20;97994.00;;;;16587566;28;20226;-71
2022/12/13 17:47:53;;;;;;;19.73;12.80;;;;;3.40;97975.00;;;;16587803;28;20228;-68
2022/12/13 17:55:58;;;;;;;22.13;14.47;;;;;3.30;97958.00;;;;16590841;28;20334;-69
2022/12/13 18:04:01;;;;;;;17.10;11.67;;;;;3.50;97973.00;;;;16586491;28;20573;-69
2022/12/13 18:12:07;;;;;;;17.00;12.77;;;;;3.40;97964.00;;;;16579189;28;20714;-69
2022/12/13 18:20:11;;;;;;;19.80;14.10;;;;;3.40;97951.00;;;;16591910;28;20227;-69
2022/12/13 18:28:15;;;;;;;21.47;14.17;;;;;3.30;97961.00;;;;16572117;28;20270;-69
2022/12/13 18:36:18;;;;;;;20.30;13.30;;;;;3.60;97948.00;;;;16579360;28;20297;-69
2022/12/13 18:44:22;;;;;;;14.07;10.90;;;;;3.20;97955.00;;;;16556767;28;20219;-68
2022/12/13 18:52:25;;;;;;;17.80;10.93;;;;;3.20;97947.00;;;;16564694;28;20241;-69
2022/12/13 19:00:30;;;;;;;19.30;11.60;;;;;3.40;97955.00;;;;16564041;28;20238;-69
2022/12/13 19:08:35;;;;;;;16.50;11.77;;;;;3.40;97936.00;;;;16552870;28;20525;-68
2022/12/13 19:16:39;;;;;;;15.30;12.30;;;;;3.30;97915.00;;;;16547848;28;20225;-69
2022/12/13 19:24:42;;;;;;;21.70;14.40;;;;;3.10;97892.00;;;;16554665;28;20277;-69
2022/12/13 19:32:46;;;;;;;21.27;13.40;;;;;3.10;97883.00;;;;16588073;28;20726;-69
2022/12/13 19:40:48;;;;;;;18.20;12.67;;;;;3.10;97883.00;;;;16571833;28;20761;-69
2022/12/13 19:48:52;;;;;;;14.60;10.80;;;;;3.10;97887.00;;;;16561731;28;20757;-70
2022/12/13 19:56:57;;;;;;;23.03;14.87;;;;;3.30;97868.00;;;;16578430;28;20222;-72
2022/12/13 20:05:01;;;;;;;19.23;12.27;;;;;3.20;97857.00;;;;16580291;28;20223;-70
2022/12/13 20:13:04;;;;;;;23.77;17.50;;;;;3.20;97852.00;;;;16581268;28;20227;-70
2022/12/13 20:21:09;;;;;;;16.70;12.80;;;;;3.40;97849.00;;;;16572994;28;20240;-70
2022/12/13 20:29:12;;;;;;;20.73;14.33;;;;;3.50;97846.00;;;;16569574;28;20305;-70
2022/12/13 20:37:16;;;;;;;20.40;13.07;;;;;3.50;97831.00;;;;16574669;28;20234;-70
2022/12/13 20:45:18;;;;;;;16.60;12.43;;;;;3.60;97836.00;;;;16584876;28;20306;-71
2022/12/13 20:53:22;;;;;;;19.53;15.77;;;;;3.90;97843.00;;;;16569133;28;20313;-70
2022/12/13 21:01:27;;;;;;;19.30;13.77;;;;;3.70;97829.00;;;;16574237;28;20600;-70
2022/12/13 21:09:32;;;;;;;16.17;12.10;;;;;3.50;97836.00;;;;16567768;28;20510;-71
2022/12/13 21:17:35;;;;;;;19.13;13.73;;;;;3.40;97826.00;;;;16570427;28;20720;-72
2022/12/13 21:25:39;;;;;;;21.17;13.50;;;;;3.60;97830.00;;;;16574038;28;20680;-72
2022/12/13 21:33:42;;;;;;;18.90;14.30;;;;;3.70;97815.00;;;;16568901;28;20676;-72
2022/12/13 21:41:46;;;;;;;20.47;14.20;;;;;3.50;97810.00;;;;16568164;28;20313;-72
2022/12/13 21:49:49;;;;;;;21.20;14.30;;;;;3.60;97809.00;;;;16569187;28;20293;-72
2022/12/13 22:06:13;;;;;;;19.17;14.53;;;;;3.30;97772.00;;;;16571596;28;20241;-72
2022/12/13 22:14:17;;;;;;;16.90;13.60;;;;;3.80;97758.00;;;;16576856;28;20887;-71
2022/12/13 22:22:21;;;;;;;16.90;11.00;;;;;3.60;97751.00;;;;16548287;28;20270;-72
2022/12/13 22:30:25;;;;;;;15.30;12.20;;;;;3.20;97728.00;;;;16569043;28;20598;-72
2022/12/13 22:38:28;;;;;;;18.93;13.23;;;;;3.40;97745.00;;;;16555706;28;20219;-72
2022/12/13 22:46:31;;;;;;;16.60;11.90;;;;;3.40;97737.00;;;;16564855;28;20227;-72
2022/12/13 22:54:34;;;;;;;17.70;12.97;;;;;3.40;97726.00;;;;16581491;28;20204;-71
2022/12/13 23:02:38;;;;;;;21.10;13.53;;;;;3.60;97706.00;;;;16586154;28;20223;-70
2022/12/13 23:19:03;;;;;;;21.27;14.23;;;;;3.20;97695.00;;;;16592350;28;20215;-70
2022/12/13 23:27:06;;;;;;;17.97;12.60;;;;;3.40;97697.00;;;;16579474;28;20269;-70
2022/12/13 23:35:11;;;;;;;15.90;12.57;;;;;3.20;97690.00;;;;16573275;28;20246;-70
2022/12/13 23:43:15;;;;;;;16.17;11.07;;;;;3.10;97702.00;;;;16584005;28;20225;-70
2022/12/13 23:51:21;;;;;;;15.90;12.10;;;;;3.40;97694.00;;;;16587285;28;20232;-70
2022/12/13 23:59:24;;;;;;;19.53;12.63;;;;;3.50;97688.00;;;;16589749;28;20223;-70
